Terminal Aerodrome Forecast
Issued by NWS Bismarck, ND

Home | Current Version | Previous Version | Graphics & Text | Print | Product List | Glossary On
Versions: 1 2 3 4 5 6 7 8 9 10 11 12 13 14 15 16 17
000
FTUS43 KBIS 202336
TAFISN
TAF
KISN 202336Z 2100/2124 24014G21KT P6SM SCT090 SCT120
     FM210100 20008KT P6SM BKN110
     FM210600 21005KT P6SM SCT110 BKN200
     FM211200 25006KT P6SM SCT080 BKN100
     FM211700 28011KT P6SM BKN090=

USA.gov is the U.S. government's official web portal to all federal, state and local government web resources and services.